sensor_id;sensor_type;location;lat;lon;timestamp;temperature;humidity
7296;DHT22;40758;54.038;11.684;2022-10-31T00:01:41;10.70;99.90
7296;DHT22;40758;54.038;11.684;2022-10-31T00:04:10;10.70;99.90
7296;DHT22;40758;54.038;11.684;2022-10-31T00:06:40;10.80;99.90
7296;DHT22;40758;54.038;11.684;2022-10-31T00:09:09;10.70;99.90
7296;DHT22;40758;54.038;11.684;2022-10-31T00:11:43;10.70;99.90
7296;DHT22;40758;54.038;11.684;2022-10-31T00:14:12;10.80;99.90
7296;DHT22;40758;54.038;11.684;2022-10-31T00:16:41;10.70;99.90
7296;DHT22;40758;54.038;11.684;2022-10-31T00:19:10;10.60;99.90
7296;DHT22;40758;54.038;11.684;2022-10-31T00:21:39;10.60;99.90
7296;DHT22;40758;54.038;11.684;2022-10-31T00:24:09;10.50;99.90
7296;DHT22;40758;54.038;11.684;2022-10-31T00:26:39;10.50;99.90
7296;DHT22;40758;54.038;11.684;2022-10-31T00:29:10;10.50;99.90
7296;DHT22;40758;54.038;11.684;2022-10-31T00:31:39;10.60;99.90
7296;DHT22;40758;54.038;11.684;2022-10-31T00:34:08;10.50;99.90
7296;DHT22;40758;54.038;11.684;2022-10-31T00:36:38;10.50;99.90
7296;DHT22;40758;54.038;11.684;2022-10-31T00:39:07;10.50;99.90
7296;DHT22;40758;54.038;11.684;2022-10-31T00:41:36;10.50;99.90
7296;DHT22;40758;54.038;11.684;2022-10-31T00:44:05;10.40;99.90
7296;DHT22;40758;54.038;11.684;2022-10-31T00:46:35;10.40;99.90
7296;DHT22;40758;54.038;11.684;2022-10-31T00:49:05;10.40;99.90
7296;DHT22;40758;54.038;11.684;2022-10-31T00:51:34;10.50;99.90
7296;DHT22;40758;54.038;11.684;2022-10-31T00:54:03;10.50;99.90
7296;DHT22;40758;54.038;11.684;2022-10-31T00:56:33;10.60;99.90
7296;DHT22;40758;54.038;11.684;2022-10-31T00:59:02;10.60;99.90
7296;DHT22;40758;54.038;11.684;2022-10-31T01:01:31;10.70;99.90
7296;DHT22;40758;54.038;11.684;2022-10-31T01:04:03;10.70;99.90
7296;DHT22;40758;54.038;11.684;2022-10-31T01:06:32;10.60;99.90
7296;DHT22;40758;54.038;11.684;2022-10-31T01:09:01;10.60;99.90
7296;DHT22;40758;54.038;11.684;2022-10-31T01:11:30;10.60;99.90
7296;DHT22;40758;54.038;11.684;2022-10-31T01:14:00;10.50;99.90
7296;DHT22;40758;54.038;11.684;2022-10-31T01:16:29;10.50;99.90
7296;DHT22;40758;54.038;11.684;2022-10-31T01:18:58;10.50;99.90
7296;DHT22;40758;54.038;11.684;2022-10-31T01:21:29;10.50;99.90
7296;DHT22;40758;54.038;11.684;2022-10-31T01:24:00;10.50;99.90
7296;DHT22;40758;54.038;11.684;2022-10-31T01:26:31;10.50;99.90
7296;DHT22;40758;54.038;11.684;2022-10-31T01:29:04;10.40;99.90
7296;DHT22;40758;54.038;11.684;2022-10-31T01:31:36;10.40;99.90
7296;DHT22;40758;54.038;11.684;2022-10-31T01:34:06;10.40;99.90
7296;DHT22;40758;54.038;11.684;2022-10-31T01:36:37;10.40;99.90
7296;DHT22;40758;54.038;11.684;2022-10-31T01:39:08;10.30;99.90
7296;DHT22;40758;54.038;11.684;2022-10-31T01:41:41;10.30;99.90
7296;DHT22;40758;54.038;11.684;2022-10-31T01:44:50;10.30;99.90
7296;DHT22;40758;54.038;11.684;2022-10-31T01:47:29;10.40;99.90
7296;DHT22;40758;54.038;11.684;2022-10-31T01:50:06;10.40;99.90
7296;DHT22;40758;54.038;11.684;2022-10-31T01:52:44;10.40;99.90
7296;DHT22;40758;54.038;11.684;2022-10-31T01:55:17;10.50;99.90
7296;DHT22;40758;54.038;11.684;2022-10-31T01:57:57;10.40;99.90
7296;DHT22;40758;54.038;11.684;2022-10-31T02:00:30;10.40;99.90
7296;DHT22;40758;54.038;11.684;2022-10-31T02:02:59;10.30;99.90
7296;DHT22;40758;54.038;11.684;2022-10-31T02:05:30;10.30;99.90
7296;DHT22;40758;54.038;11.684;2022-10-31T02:08:03;10.20;99.90
7296;DHT22;40758;54.038;11.684;2022-10-31T02:10:37;10.20;99.90
7296;DHT22;40758;54.038;11.684;2022-10-31T02:13:08;10.10;99.90
7296;DHT22;40758;54.038;11.684;2022-10-31T02:15:38;10.10;99.90
7296;DHT22;40758;54.038;11.684;2022-10-31T02:18:08;10.00;99.90
7296;DHT22;40758;54.038;11.684;2022-10-31T02:20:45;10.00;99.90
7296;DHT22;40758;54.038;11.684;2022-10-31T02:23:53;10.00;99.90
7296;DHT22;40758;54.038;11.684;2022-10-31T02:26:46;10.00;99.90
7296;DHT22;40758;54.038;11.684;2022-10-31T02:35:57;10.10;99.90
7296;DHT22;40758;54.038;11.684;2022-10-31T02:38:42;10.10;99.90
7296;DHT22;40758;54.038;11.684;2022-10-31T02:41:27;10.20;99.90
7296;DHT22;40758;54.038;11.684;2022-10-31T02:44:08;10.20;99.90
7296;DHT22;40758;54.038;11.684;2022-10-31T02:46:45;10.20;99.90
7296;DHT22;40758;54.038;11.684;2022-10-31T02:49:24;10.20;99.90
7296;DHT22;40758;54.038;11.684;2022-10-31T02:51:56;10.20;99.90
7296;DHT22;40758;54.038;11.684;2022-10-31T02:54:27;10.20;99.90
7296;DHT22;40758;54.038;11.684;2022-10-31T02:57:06;10.10;99.90
7296;DHT22;40758;54.038;11.684;2022-10-31T02:59:49;10.10;99.90
7296;DHT22;40758;54.038;11.684;2022-10-31T03:02:46;10.00;99.90
7296;DHT22;40758;54.038;11.684;2022-10-31T03:05:51;10.00;99.90
7296;DHT22;40758;54.038;11.684;2022-10-31T03:08:34;9.90;99.90
7296;DHT22;40758;54.038;11.684;2022-10-31T03:11:10;9.90;99.90
7296;DHT22;40758;54.038;11.684;2022-10-31T03:13:42;9.90;99.90
7296;DHT22;40758;54.038;11.684;2022-10-31T03:16:18;9.90;99.90
7296;DHT22;40758;54.038;11.684;2022-10-31T03:18:55;9.90;99.90
7296;DHT22;40758;54.038;11.684;2022-10-31T03:21:33;9.90;99.90
7296;DHT22;40758;54.038;11.684;2022-10-31T03:24:08;9.90;99.90
7296;DHT22;40758;54.038;11.684;2022-10-31T03:26:42;9.80;99.90
7296;DHT22;40758;54.038;11.684;2022-10-31T03:29:16;9.90;99.90
7296;DHT22;40758;54.038;11.684;2022-10-31T03:31:54;9.90;99.90
7296;DHT22;40758;54.038;11.684;2022-10-31T03:34:28;9.90;99.90
7296;DHT22;40758;54.038;11.684;2022-10-31T03:37:01;9.90;99.90
7296;DHT22;40758;54.038;11.684;2022-10-31T03:39:34;9.90;99.90
7296;DHT22;40758;54.038;11.684;2022-10-31T03:42:06;9.90;99.90
7296;DHT22;40758;54.038;11.684;2022-10-31T03:44:41;9.90;99.90
7296;DHT22;40758;54.038;11.684;2022-10-31T03:47:14;9.80;99.90
7296;DHT22;40758;54.038;11.684;2022-10-31T03:49:44;9.80;99.90
7296;DHT22;40758;54.038;11.684;2022-10-31T03:52:22;9.80;99.90
7296;DHT22;40758;54.038;11.684;2022-10-31T03:54:57;9.90;99.90
7296;DHT22;40758;54.038;11.684;2022-10-31T03:57:35;9.80;99.90
7296;DHT22;40758;54.038;11.684;2022-10-31T04:00:12;9.90;99.90
7296;DHT22;40758;54.038;11.684;2022-10-31T04:02:45;9.90;99.90
7296;DHT22;40758;54.038;11.684;2022-10-31T04:05:20;9.90;99.90
7296;DHT22;40758;54.038;11.684;2022-10-31T04:07:53;9.80;99.90
7296;DHT22;40758;54.038;11.684;2022-10-31T04:10:26;9.80;99.90
7296;DHT22;40758;54.038;11.684;2022-10-31T04:13:03;9.80;99.90
7296;DHT22;40758;54.038;11.684;2022-10-31T04:15:36;9.80;99.90
7296;DHT22;40758;54.038;11.684;2022-10-31T04:18:08;9.90;99.90
7296;DHT22;40758;54.038;11.684;2022-10-31T04:20:40;9.90;99.90
7296;DHT22;40758;54.038;11.684;2022-10-31T04:23:17;9.90;99.90
7296;DHT22;40758;54.038;11.684;2022-10-31T04:25:48;9.80;99.90
7296;DHT22;40758;54.038;11.684;2022-10-31T04:28:17;9.70;99.90
7296;DHT22;40758;54.038;11.684;2022-10-31T04:30:47;9.70;99.90
7296;DHT22;40758;54.038;11.684;2022-10-31T04:33:16;9.70;99.90
7296;DHT22;40758;54.038;11.684;2022-10-31T04:35:46;9.70;99.90
7296;DHT22;40758;54.038;11.684;2022-10-31T04:38:16;9.70;99.90
7296;DHT22;40758;54.038;11.684;2022-10-31T04:40:46;9.60;99.90
7296;DHT22;40758;54.038;11.684;2022-10-31T04:43:15;9.70;99.90
7296;DHT22;40758;54.038;11.684;2022-10-31T04:45:44;9.80;99.90
7296;DHT22;40758;54.038;11.684;2022-10-31T04:48:13;9.90;99.90
7296;DHT22;40758;54.038;11.684;2022-10-31T04:50:42;10.00;99.90
7296;DHT22;40758;54.038;11.684;2022-10-31T04:53:11;10.10;99.90
7296;DHT22;40758;54.038;11.684;2022-10-31T04:55:42;10.10;99.90
7296;DHT22;40758;54.038;11.684;2022-10-31T04:58:10;10.20;99.90
7296;DHT22;40758;54.038;11.684;2022-10-31T05:00:40;10.30;99.90
7296;DHT22;40758;54.038;11.684;2022-10-31T05:03:09;10.30;99.90
7296;DHT22;40758;54.038;11.684;2022-10-31T05:05:38;10.30;99.90
7296;DHT22;40758;54.038;11.684;2022-10-31T05:08:08;10.40;99.90
7296;DHT22;40758;54.038;11.684;2022-10-31T05:10:37;10.40;99.90
7296;DHT22;40758;54.038;11.684;2022-10-31T05:13:07;10.30;99.90
7296;DHT22;40758;54.038;11.684;2022-10-31T05:15:37;10.40;99.90
7296;DHT22;40758;54.038;11.684;2022-10-31T05:18:06;10.30;99.90
7296;DHT22;40758;54.038;11.684;2022-10-31T05:20:35;10.30;99.90
7296;DHT22;40758;54.038;11.684;2022-10-31T05:23:04;10.40;99.90
7296;DHT22;40758;54.038;11.684;2022-10-31T05:25:33;10.30;99.90
7296;DHT22;40758;54.038;11.684;2022-10-31T05:28:03;10.40;99.90
7296;DHT22;40758;54.038;11.684;2022-10-31T05:30:35;10.40;99.90
7296;DHT22;40758;54.038;11.684;2022-10-31T05:33:04;10.50;99.90
7296;DHT22;40758;54.038;11.684;2022-10-31T05:35:33;10.60;99.90
7296;DHT22;40758;54.038;11.684;2022-10-31T05:38:02;10.70;99.90
7296;DHT22;40758;54.038;11.684;2022-10-31T05:40:32;10.90;99.90
7296;DHT22;40758;54.038;11.684;2022-10-31T05:43:01;11.00;99.90
7296;DHT22;40758;54.038;11.684;2022-10-31T05:45:30;11.10;99.90
7296;DHT22;40758;54.038;11.684;2022-10-31T05:48:01;11.20;99.90
7296;DHT22;40758;54.038;11.684;2022-10-31T05:50:32;11.20;99.90
7296;DHT22;40758;54.038;11.684;2022-10-31T05:53:02;11.30;99.90
7296;DHT22;40758;54.038;11.684;2022-10-31T05:55:34;11.40;99.90
7296;DHT22;40758;54.038;11.684;2022-10-31T05:58:03;11.50;99.90
7296;DHT22;40758;54.038;11.684;2022-10-31T06:00:32;11.70;99.90
7296;DHT22;40758;54.038;11.684;2022-10-31T06:03:05;11.80;99.90
7296;DHT22;40758;54.038;11.684;2022-10-31T06:05:40;12.10;99.90
7296;DHT22;40758;54.038;11.684;2022-10-31T06:08:10;12.30;99.90
7296;DHT22;40758;54.038;11.684;2022-10-31T06:10:39;12.50;99.90
7296;DHT22;40758;54.038;11.684;2022-10-31T06:13:08;12.70;99.90
7296;DHT22;40758;54.038;11.684;2022-10-31T06:15:37;12.90;99.90
7296;DHT22;40758;54.038;11.684;2022-10-31T06:18:09;13.40;99.90
7296;DHT22;40758;54.038;11.684;2022-10-31T06:20:38;13.60;99.90
7296;DHT22;40758;54.038;11.684;2022-10-31T06:23:07;13.80;99.90
7296;DHT22;40758;54.038;11.684;2022-10-31T06:25:36;14.10;99.90
7296;DHT22;40758;54.038;11.684;2022-10-31T06:28:05;14.50;99.90
7296;DHT22;40758;54.038;11.684;2022-10-31T06:30:34;15.20;99.90
7296;DHT22;40758;54.038;11.684;2022-10-31T06:33:04;15.60;99.90
7296;DHT22;40758;54.038;11.684;2022-10-31T06:35:35;15.90;99.90
7296;DHT22;40758;54.038;11.684;2022-10-31T06:38:05;16.00;99.90
7296;DHT22;40758;54.038;11.684;2022-10-31T06:40:34;16.10;99.90
7296;DHT22;40758;54.038;11.684;2022-10-31T06:43:03;16.30;99.90
7296;DHT22;40758;54.038;11.684;2022-10-31T06:45:32;16.40;99.90
7296;DHT22;40758;54.038;11.684;2022-10-31T06:48:01;16.40;99.90
7296;DHT22;40758;54.038;11.684;2022-10-31T06:50:45;16.50;99.90
7296;DHT22;40758;54.038;11.684;2022-10-31T06:53:14;16.60;99.90
7296;DHT22;40758;54.038;11.684;2022-10-31T06:55:43;16.60;99.90
7296;DHT22;40758;54.038;11.684;2022-10-31T06:58:12;16.70;99.90
7296;DHT22;40758;54.038;11.684;2022-10-31T07:00:42;16.70;99.90
7296;DHT22;40758;54.038;11.684;2022-10-31T07:03:12;16.70;99.90
7296;DHT22;40758;54.038;11.684;2022-10-31T07:05:45;16.80;99.90
7296;DHT22;40758;54.038;11.684;2022-10-31T07:08:14;16.80;99.90
7296;DHT22;40758;54.038;11.684;2022-10-31T07:10:51;16.80;99.90
7296;DHT22;40758;54.038;11.684;2022-10-31T07:13:21;16.80;99.90
7296;DHT22;40758;54.038;11.684;2022-10-31T07:15:53;16.80;99.90
7296;DHT22;40758;54.038;11.684;2022-10-31T07:18:27;16.80;99.90
7296;DHT22;40758;54.038;11.684;2022-10-31T07:20:58;16.80;99.90
7296;DHT22;40758;54.038;11.684;2022-10-31T07:23:27;16.80;99.90
7296;DHT22;40758;54.038;11.684;2022-10-31T07:25:56;16.80;99.90
7296;DHT22;40758;54.038;11.684;2022-10-31T07:28:27;16.80;99.90
7296;DHT22;40758;54.038;11.684;2022-10-31T07:30:57;16.80;99.90
7296;DHT22;40758;54.038;11.684;2022-10-31T07:33:26;16.80;99.90
7296;DHT22;40758;54.038;11.684;2022-10-31T07:35:56;16.90;99.90
7296;DHT22;40758;54.038;11.684;2022-10-31T07:38:26;16.80;99.90
7296;DHT22;40758;54.038;11.684;2022-10-31T07:40:55;16.90;99.90
7296;DHT22;40758;54.038;11.684;2022-10-31T07:43:25;16.80;99.90
7296;DHT22;40758;54.038;11.684;2022-10-31T07:45:55;16.90;99.90
7296;DHT22;40758;54.038;11.684;2022-10-31T07:48:25;16.90;99.90
7296;DHT22;40758;54.038;11.684;2022-10-31T07:50:55;16.90;99.90
7296;DHT22;40758;54.038;11.684;2022-10-31T07:53:27;16.90;99.90
7296;DHT22;40758;54.038;11.684;2022-10-31T07:55:57;16.90;99.90
7296;DHT22;40758;54.038;11.684;2022-10-31T07:58:27;16.80;99.90
7296;DHT22;40758;54.038;11.684;2022-10-31T08:00:57;16.80;99.90
7296;DHT22;40758;54.038;11.684;2022-10-31T08:03:27;16.80;99.90
7296;DHT22;40758;54.038;11.684;2022-10-31T08:05:56;16.90;99.90
7296;DHT22;40758;54.038;11.684;2022-10-31T08:08:27;16.90;99.90
7296;DHT22;40758;54.038;11.684;2022-10-31T08:11:02;16.90;99.90
7296;DHT22;40758;54.038;11.684;2022-10-31T08:13:31;16.90;99.90
7296;DHT22;40758;54.038;11.684;2022-10-31T08:16:00;16.90;99.90
7296;DHT22;40758;54.038;11.684;2022-10-31T08:18:31;16.90;99.90
7296;DHT22;40758;54.038;11.684;2022-10-31T08:21:00;16.90;99.90
7296;DHT22;40758;54.038;11.684;2022-10-31T08:23:30;17.00;99.90
7296;DHT22;40758;54.038;11.684;2022-10-31T08:25:59;17.00;99.90
7296;DHT22;40758;54.038;11.684;2022-10-31T08:28:29;17.10;99.90
7296;DHT22;40758;54.038;11.684;2022-10-31T08:30:58;17.10;99.90
7296;DHT22;40758;54.038;11.684;2022-10-31T08:33:27;17.10;99.90
7296;DHT22;40758;54.038;11.684;2022-10-31T08:35:57;17.00;99.90
7296;DHT22;40758;54.038;11.684;2022-10-31T08:38:27;17.10;99.90
7296;DHT22;40758;54.038;11.684;2022-10-31T08:40:58;17.10;99.90
7296;DHT22;40758;54.038;11.684;2022-10-31T08:43:27;17.10;99.90
7296;DHT22;40758;54.038;11.684;2022-10-31T08:45:56;17.10;99.90
7296;DHT22;40758;54.038;11.684;2022-10-31T08:48:25;17.10;99.90
7296;DHT22;40758;54.038;11.684;2022-10-31T08:50:56;17.10;99.90
7296;DHT22;40758;54.038;11.684;2022-10-31T08:53:29;17.10;99.90
7296;DHT22;40758;54.038;11.684;2022-10-31T08:56:08;17.10;99.90
7296;DHT22;40758;54.038;11.684;2022-10-31T08:58:44;17.10;99.90
7296;DHT22;40758;54.038;11.684;2022-10-31T09:01:13;17.20;99.90
7296;DHT22;40758;54.038;11.684;2022-10-31T09:03:46;17.20;99.90
7296;DHT22;40758;54.038;11.684;2022-10-31T09:06:15;17.30;99.90
7296;DHT22;40758;54.038;11.684;2022-10-31T09:08:44;17.30;99.90
7296;DHT22;40758;54.038;11.684;2022-10-31T09:11:15;17.30;99.90
7296;DHT22;40758;54.038;11.684;2022-10-31T09:13:44;17.30;99.90
7296;DHT22;40758;54.038;11.684;2022-10-31T09:16:13;17.40;99.90
7296;DHT22;40758;54.038;11.684;2022-10-31T09:18:42;17.30;99.90
7296;DHT22;40758;54.038;11.684;2022-10-31T09:21:12;17.20;99.90
7296;DHT22;40758;54.038;11.684;2022-10-31T09:23:41;17.10;99.90
7296;DHT22;40758;54.038;11.684;2022-10-31T09:26:10;17.20;99.90
7296;DHT22;40758;54.038;11.684;2022-10-31T09:28:41;17.20;99.90
7296;DHT22;40758;54.038;11.684;2022-10-31T09:31:12;17.10;99.90
7296;DHT22;40758;54.038;11.684;2022-10-31T09:33:41;17.10;99.90
7296;DHT22;40758;54.038;11.684;2022-10-31T09:36:11;17.10;99.90
7296;DHT22;40758;54.038;11.684;2022-10-31T09:38:41;17.10;99.90
7296;DHT22;40758;54.038;11.684;2022-10-31T09:41:19;17.10;99.90
7296;DHT22;40758;54.038;11.684;2022-10-31T09:44:03;17.00;99.90
7296;DHT22;40758;54.038;11.684;2022-10-31T09:46:47;17.00;99.90
7296;DHT22;40758;54.038;11.684;2022-10-31T09:49:48;17.00;99.90
7296;DHT22;40758;54.038;11.684;2022-10-31T09:52:43;17.10;99.90
7296;DHT22;40758;54.038;11.684;2022-10-31T09:55:31;17.10;99.90
7296;DHT22;40758;54.038;11.684;2022-10-31T09:58:12;17.10;99.90
7296;DHT22;40758;54.038;11.684;2022-10-31T10:00:49;17.00;99.90
7296;DHT22;40758;54.038;11.684;2022-10-31T10:03:31;17.10;99.90
7296;DHT22;40758;54.038;11.684;2022-10-31T10:06:13;17.20;99.90
7296;DHT22;40758;54.038;11.684;2022-10-31T10:08:48;17.10;99.90
7296;DHT22;40758;54.038;11.684;2022-10-31T10:11:34;17.20;99.90
7296;DHT22;40758;54.038;11.684;2022-10-31T10:14:31;17.40;99.90
7296;DHT22;40758;54.038;11.684;2022-10-31T10:17:18;17.70;99.90
7296;DHT22;40758;54.038;11.684;2022-10-31T10:20:14;17.80;99.90
7296;DHT22;40758;54.038;11.684;2022-10-31T10:22:57;17.80;99.90
7296;DHT22;40758;54.038;11.684;2022-10-31T10:25:46;17.80;99.90
7296;DHT22;40758;54.038;11.684;2022-10-31T10:28:26;17.90;99.90
7296;DHT22;40758;54.038;11.684;2022-10-31T10:31:03;17.90;99.90
7296;DHT22;40758;54.038;11.684;2022-10-31T10:33:39;17.80;99.90
7296;DHT22;40758;54.038;11.684;2022-10-31T10:36:16;17.70;99.90
7296;DHT22;40758;54.038;11.684;2022-10-31T10:38:52;17.80;99.90
7296;DHT22;40758;54.038;11.684;2022-10-31T10:41:29;17.90;99.90
7296;DHT22;40758;54.038;11.684;2022-10-31T10:44:07;18.00;99.90
7296;DHT22;40758;54.038;11.684;2022-10-31T10:46:42;18.00;99.90
7296;DHT22;40758;54.038;11.684;2022-10-31T10:49:37;18.00;99.90
7296;DHT22;40758;54.038;11.684;2022-10-31T10:52:20;18.00;99.90
7296;DHT22;40758;54.038;11.684;2022-10-31T10:55:16;18.00;99.90
7296;DHT22;40758;54.038;11.684;2022-10-31T10:58:00;18.10;99.90
7296;DHT22;40758;54.038;11.684;2022-10-31T11:00:34;18.00;99.90
7296;DHT22;40758;54.038;11.684;2022-10-31T11:03:07;17.90;99.90
7296;DHT22;40758;54.038;11.684;2022-10-31T11:05:41;18.00;99.90
7296;DHT22;40758;54.038;11.684;2022-10-31T11:08:23;17.80;99.90
7296;DHT22;40758;54.038;11.684;2022-10-31T11:10:59;17.70;99.90
7296;DHT22;40758;54.038;11.684;2022-10-31T11:13:31;17.80;99.90
7296;DHT22;40758;54.038;11.684;2022-10-31T11:16:04;17.80;99.90
7296;DHT22;40758;54.038;11.684;2022-10-31T11:18:40;17.80;99.90
7296;DHT22;40758;54.038;11.684;2022-10-31T11:21:25;17.90;99.90
7296;DHT22;40758;54.038;11.684;2022-10-31T11:24:02;17.90;99.90
7296;DHT22;40758;54.038;11.684;2022-10-31T11:26:32;17.80;99.90
7296;DHT22;40758;54.038;11.684;2022-10-31T11:29:02;17.80;99.90
7296;DHT22;40758;54.038;11.684;2022-10-31T11:31:34;17.90;99.90
7296;DHT22;40758;54.038;11.684;2022-10-31T11:34:05;17.70;99.90
7296;DHT22;40758;54.038;11.684;2022-10-31T11:36:45;17.60;99.90
7296;DHT22;40758;54.038;11.684;2022-10-31T11:39:22;17.50;99.90
7296;DHT22;40758;54.038;11.684;2022-10-31T11:41:54;17.50;99.90
7296;DHT22;40758;54.038;11.684;2022-10-31T11:44:35;17.70;99.90
7296;DHT22;40758;54.038;11.684;2022-10-31T11:47:06;17.60;99.90
7296;DHT22;40758;54.038;11.684;2022-10-31T11:49:44;17.40;99.90
7296;DHT22;40758;54.038;11.684;2022-10-31T11:52:30;17.10;99.90
7296;DHT22;40758;54.038;11.684;2022-10-31T11:55:13;16.90;99.90
7296;DHT22;40758;54.038;11.684;2022-10-31T11:57:45;17.00;99.90
7296;DHT22;40758;54.038;11.684;2022-10-31T12:00:23;17.00;99.90
7296;DHT22;40758;54.038;11.684;2022-10-31T12:03:11;16.90;99.90
7296;DHT22;40758;54.038;11.684;2022-10-31T12:05:51;16.70;99.90
7296;DHT22;40758;54.038;11.684;2022-10-31T12:08:30;16.70;99.90
7296;DHT22;40758;54.038;11.684;2022-10-31T12:11:11;16.80;99.90
7296;DHT22;40758;54.038;11.684;2022-10-31T12:14:14;16.70;99.90
7296;DHT22;40758;54.038;11.684;2022-10-31T12:16:57;16.60;99.90
7296;DHT22;40758;54.038;11.684;2022-10-31T12:19:37;16.60;99.90
7296;DHT22;40758;54.038;11.684;2022-10-31T12:22:22;16.60;99.90
7296;DHT22;40758;54.038;11.684;2022-10-31T12:25:23;16.60;99.90
7296;DHT22;40758;54.038;11.684;2022-10-31T12:28:06;16.60;99.90
7296;DHT22;40758;54.038;11.684;2022-10-31T12:31:07;16.60;99.90
7296;DHT22;40758;54.038;11.684;2022-10-31T12:34:23;16.50;99.90
7296;DHT22;40758;54.038;11.684;2022-10-31T12:37:25;16.40;99.90
7296;DHT22;40758;54.038;11.684;2022-10-31T12:40:24;16.40;99.90
7296;DHT22;40758;54.038;11.684;2022-10-31T12:43:12;16.40;99.90
7296;DHT22;40758;54.038;11.684;2022-10-31T12:45:54;16.40;99.90
7296;DHT22;40758;54.038;11.684;2022-10-31T12:48:47;16.40;99.90
7296;DHT22;40758;54.038;11.684;2022-10-31T12:51:46;16.40;99.90
7296;DHT22;40758;54.038;11.684;2022-10-31T12:54:36;16.30;99.90
7296;DHT22;40758;54.038;11.684;2022-10-31T12:57:33;16.20;99.90
7296;DHT22;40758;54.038;11.684;2022-10-31T13:00:12;16.20;99.90
7296;DHT22;40758;54.038;11.684;2022-10-31T13:02:50;16.10;99.90
7296;DHT22;40758;54.038;11.684;2022-10-31T13:05:36;16.10;99.90
7296;DHT22;40758;54.038;11.684;2022-10-31T13:08:12;16.00;99.90
7296;DHT22;40758;54.038;11.684;2022-10-31T13:11:11;16.10;99.90
7296;DHT22;40758;54.038;11.684;2022-10-31T13:14:06;16.00;99.90
7296;DHT22;40758;54.038;11.684;2022-10-31T13:16:43;15.90;99.90
7296;DHT22;40758;54.038;11.684;2022-10-31T13:19:19;15.80;99.90
7296;DHT22;40758;54.038;11.684;2022-10-31T13:21:58;15.70;99.90
7296;DHT22;40758;54.038;11.684;2022-10-31T13:24:36;15.70;99.90
7296;DHT22;40758;54.038;11.684;2022-10-31T13:27:14;15.50;99.90
7296;DHT22;40758;54.038;11.684;2022-10-31T13:29:58;15.60;99.90
7296;DHT22;40758;54.038;11.684;2022-10-31T13:32:37;15.60;99.90
7296;DHT22;40758;54.038;11.684;2022-10-31T13:35:16;15.60;99.90
7296;DHT22;40758;54.038;11.684;2022-10-31T13:38:00;15.70;99.90
7296;DHT22;40758;54.038;11.684;2022-10-31T13:40:44;15.80;99.90
7296;DHT22;40758;54.038;11.684;2022-10-31T13:43:27;15.60;99.90
7296;DHT22;40758;54.038;11.684;2022-10-31T13:46:23;15.50;99.90
7296;DHT22;40758;54.038;11.684;2022-10-31T13:48:53;15.50;99.90
7296;DHT22;40758;54.038;11.684;2022-10-31T13:51:27;15.40;99.90
7296;DHT22;40758;54.038;11.684;2022-10-31T13:53:59;15.40;99.90
7296;DHT22;40758;54.038;11.684;2022-10-31T13:56:31;15.40;99.90
7296;DHT22;40758;54.038;11.684;2022-10-31T13:59:21;15.30;99.90
7296;DHT22;40758;54.038;11.684;2022-10-31T14:01:55;15.40;99.90
7296;DHT22;40758;54.038;11.684;2022-10-31T14:04:32;15.30;99.90
7296;DHT22;40758;54.038;11.684;2022-10-31T14:07:08;15.30;99.90
7296;DHT22;40758;54.038;11.684;2022-10-31T14:09:48;15.20;99.90
7296;DHT22;40758;54.038;11.684;2022-10-31T14:12:26;15.30;99.90
7296;DHT22;40758;54.038;11.684;2022-10-31T14:15:03;15.30;99.90
7296;DHT22;40758;54.038;11.684;2022-10-31T14:17:51;15.20;99.90
7296;DHT22;40758;54.038;11.684;2022-10-31T14:20:36;15.00;99.90
7296;DHT22;40758;54.038;11.684;2022-10-31T14:23:24;15.00;99.90
7296;DHT22;40758;54.038;11.684;2022-10-31T14:26:35;15.00;99.90
7296;DHT22;40758;54.038;11.684;2022-10-31T14:29:26;15.10;99.90
7296;DHT22;40758;54.038;11.684;2022-10-31T14:32:04;15.10;99.90
7296;DHT22;40758;54.038;11.684;2022-10-31T14:34:52;15.10;99.90
7296;DHT22;40758;54.038;11.684;2022-10-31T14:37:45;15.10;99.90
7296;DHT22;40758;54.038;11.684;2022-10-31T14:40:48;15.10;99.90
7296;DHT22;40758;54.038;11.684;2022-10-31T14:43:41;15.10;99.90
7296;DHT22;40758;54.038;11.684;2022-10-31T14:46:32;15.10;99.90
7296;DHT22;40758;54.038;11.684;2022-10-31T14:49:23;15.00;99.90
7296;DHT22;40758;54.038;11.684;2022-10-31T14:52:06;15.00;99.90
7296;DHT22;40758;54.038;11.684;2022-10-31T14:54:39;14.90;99.90
7296;DHT22;40758;54.038;11.684;2022-10-31T14:57:16;14.90;99.90
7296;DHT22;40758;54.038;11.684;2022-10-31T14:59:52;14.90;99.90
7296;DHT22;40758;54.038;11.684;2022-10-31T15:02:31;14.80;99.90
7296;DHT22;40758;54.038;11.684;2022-10-31T15:05:09;14.90;99.90
7296;DHT22;40758;54.038;11.684;2022-10-31T15:07:51;14.90;99.90
7296;DHT22;40758;54.038;11.684;2022-10-31T15:10:26;14.80;99.90
7296;DHT22;40758;54.038;11.684;2022-10-31T15:13:08;14.80;99.90
7296;DHT22;40758;54.038;11.684;2022-10-31T15:15:40;14.80;99.90
7296;DHT22;40758;54.038;11.684;2022-10-31T15:18:17;14.70;99.90
7296;DHT22;40758;54.038;11.684;2022-10-31T15:20:50;14.80;99.90
7296;DHT22;40758;54.038;11.684;2022-10-31T15:23:24;14.70;99.90
7296;DHT22;40758;54.038;11.684;2022-10-31T15:25:59;14.70;99.90
7296;DHT22;40758;54.038;11.684;2022-10-31T15:28:29;14.70;99.90
7296;DHT22;40758;54.038;11.684;2022-10-31T15:31:01;14.60;99.90
7296;DHT22;40758;54.038;11.684;2022-10-31T15:33:40;14.60;99.90
7296;DHT22;40758;54.038;11.684;2022-10-31T15:36:19;14.50;99.90
7296;DHT22;40758;54.038;11.684;2022-10-31T15:38:58;14.50;99.90
7296;DHT22;40758;54.038;11.684;2022-10-31T15:41:30;14.50;99.90
7296;DHT22;40758;54.038;11.684;2022-10-31T15:44:10;14.50;99.90
7296;DHT22;40758;54.038;11.684;2022-10-31T15:46:42;14.50;99.90
7296;DHT22;40758;54.038;11.684;2022-10-31T15:49:34;14.50;99.90
7296;DHT22;40758;54.038;11.684;2022-10-31T15:52:10;14.40;99.90
7296;DHT22;40758;54.038;11.684;2022-10-31T15:54:48;14.40;99.90
7296;DHT22;40758;54.038;11.684;2022-10-31T15:57:20;14.40;99.90
7296;DHT22;40758;54.038;11.684;2022-10-31T15:59:50;14.40;99.90
7296;DHT22;40758;54.038;11.684;2022-10-31T16:02:25;14.30;99.90
7296;DHT22;40758;54.038;11.684;2022-10-31T16:04:57;14.30;99.90
7296;DHT22;40758;54.038;11.684;2022-10-31T16:07:28;14.30;99.90
7296;DHT22;40758;54.038;11.684;2022-10-31T16:10:00;14.30;99.90
7296;DHT22;40758;54.038;11.684;2022-10-31T16:12:34;14.20;99.90
7296;DHT22;40758;54.038;11.684;2022-10-31T16:15:12;14.20;99.90
7296;DHT22;40758;54.038;11.684;2022-10-31T16:17:45;14.20;99.90
7296;DHT22;40758;54.038;11.684;2022-10-31T16:20:19;14.20;99.90
7296;DHT22;40758;54.038;11.684;2022-10-31T16:22:51;14.20;99.90
7296;DHT22;40758;54.038;11.684;2022-10-31T16:25:26;14.20;99.90
7296;DHT22;40758;54.038;11.684;2022-10-31T16:28:04;14.20;99.90
7296;DHT22;40758;54.038;11.684;2022-10-31T16:30:44;14.20;99.90
7296;DHT22;40758;54.038;11.684;2022-10-31T16:33:26;14.10;99.90